Buoy 56916

sailwx.info

Track history (hours):
 
Tides and Currents Weather Stations Pressure Air Temp Water Temp Dewpoint Dewpoint Depression Visibility Wind Speed Wind Dir Waves Ship Positions

Drifting buoy 56916

Last reported at 2016-Jul-28 07:00 UTC. Time now 2016-Jul-28 10:36 UTC.
Position S 50°30' E 110°46'.

Barometer 999.5 mb
Water temperature 2.2 ° C

Date/timePositionNaut miles runAvg speedWind from/ knotsBaromVisibWave heightAir tempDewpointWater temp
2016-Jul-28 07:00S 50°30' E 110°46'2 0.4 999.5 2.2
2016-Jul-28 02:00S 50°32' E 110°45'2 1.0 999.4 2.2
2016-Jul-28 00:00S 50°34' E 110°44'2 1.1 998.2 2.2
2016-Jul-27 22:00S 50°36' E 110°43'0 0.1 996.5 2.2
2016-Jul-27 20:00S 50°36' E 110°44'1 0.2 994.5 2.2
2016-Jul-27 17:00S 50°36' E 110°43'0 0.2 992.1 2.2
2016-Jul-27 16:00S 50°36' E 110°43'2 0.4 991.7 2.2
2016-Jul-27 12:00S 50°37' E 110°45'2 0.6 991.9 2.2
2016-Jul-27 09:00S 50°39' E 110°47'1 0.7 992.1 2.2
2016-Jul-27 07:00S 50°40' E 110°46'2 0.4 991.4 2.2
2016-Jul-27 01:00S 50°42' E 110°44'2 0.5 989.2 2.2
2016-Jul-26 22:00S 50°42' E 110°47'0 0.0 987.8 2.1
2016-Jul-26 21:00S 50°42' E 110°47'1 1.4 988.2 2.1
2016-Jul-26 20:00S 50°43' E 110°47'1 0.4 988.7 2.1
2016-Jul-26 17:00S 50°44' E 110°48'2 0.8 990.2 2.2
2016-Jul-26 15:00S 50°45' E 110°46'0 0.0 989.8 2.2
2016-Jul-26 14:00S 50°45' E 110°46'0 0.2 988.3 2.2
2016-Jul-26 13:00S 50°45' E 110°45'1 0.4 988.9 2.2
2016-Jul-26 11:00S 50°46' E 110°44'0 0.3 989.7 2.2
2016-Jul-26 10:00S 50°46' E 110°45'0 0.2 990.1 2.2
2016-Jul-26 08:00S 50°46' E 110°45'1 0.5 991.5 2.2
2016-Jul-26 06:00S 50°46' E 110°46'2 0.6 992.0 2.2
2016-Jul-26 02:00S 50°48' E 110°47'1 0.6 993.8 2.2
2016-Jul-26 01:00S 50°49' E 110°46'1 0.4 993.6 2.2
2016-Jul-25 23:00S 50°49' E 110°45'0 0.2 991.6 2.2
2016-Jul-25 22:00S 50°49' E 110°45'1 0.4 990.8 2.2
2016-Jul-25 20:00S 50°50' E 110°44'0 0.1 989.8 2.2
2016-Jul-25 18:00S 50°50' E 110°45'0 0.0 992.2 2.2
2016-Jul-25 17:00S 50°50' E 110°45'1 0.6 995.6 2.2
2016-Jul-25 16:00S 50°50' E 110°45'1 1.0 998.7 2.2
2016-Jul-25 15:00S 50°51' E 110°44'2 0.4 999.8 2.2
2016-Jul-25 10:00S 50°52' E 110°45'1 0.2 1002.3 2.2
2016-Jul-25 06:00S 50°53' E 110°45'2 0.5 998.4 2.2
2016-Jul-25 03:00S 50°54' E 110°48'0 0.0 994.0 2.2
2016-Jul-25 00:00S 50°54' E 110°48'1 0.4 997.1 2.2
2016-Jul-24 21:00S 50°55' E 110°48'0 0.4 1001.7 2.2
2016-Jul-24 20:00S 50°55' E 110°48'0 0.1 1002.7 2.2
2016-Jul-24 18:00S 50°55' E 110°47'1 0.7 1004.5 2.2
2016-Jul-24 17:00S 50°55' E 110°47'3 1.0 1004.9 2.2
2016-Jul-24 14:00S 50°57' E 110°46'0 0.1 1005.5 2.2
2016-Jul-24 11:00S 50°57' E 110°47'1 0.8 1005.5 2.3
2016-Jul-24 10:00S 50°58' E 110°47'0 0.5 1003.7 2.3
2016-Jul-24 09:00S 50°58' E 110°48'1 0.3 1002.8 2.2
2016-Jul-24 06:00S 50°59' E 110°48'4 0.9 999.1 2.1
2016-Jul-24 02:00S 51°03' E 110°48'1 0.6 996.0 2.1
2016-Jul-24 01:00S 51°03' E 110°48'1 0.8 995.4 2.1
2016-Jul-24 00:00S 51°04' E 110°47'1 0.3 994.5 2.1
2016-Jul-23 20:00S 51°05' E 110°46'2 0.6 994.9 2.2
2016-Jul-23 16:00S 51°07' E 110°45'1 0.4 996.9 2.2
2016-Jul-23 14:00S 51°08' E 110°45'1 0.5 997.7 2.3
2016-Jul-23 11:00S 51°09' E 110°43'1 0.8 998.0 2.3
2016-Jul-23 10:00S 51°10' E 110°43'1 0.7 997.9 2.3
2016-Jul-23 09:00S 51°10' E 110°42'1 0.4 997.4 2.3
2016-Jul-23 06:00S 51°11' E 110°40'3 0.6 995.6 2.3
2016-Jul-23 02:00S 51°12' E 110°37'2 0.9 1002.7 2.4
2016-Jul-23 00:00S 51°13' E 110°34'1 0.5 1006.2 2.4
2016-Jul-22 22:00S 51°13' E 110°33'1 1.0 1008.1 2.4
2016-Jul-22 21:00S 51°14' E 110°31'3 1.7 1008.3 2.4
2016-Jul-22 19:00S 51°14' E 110°26'1 0.6 1008.4 2.3
2016-Jul-22 18:00S 51°14' E 110°26'0 0.2 1008.3 2.3
2016-Jul-22 16:00S 51°15' E 110°27'3 1.0 1007.1 2.3
2016-Jul-22 13:00S 51°16' E 110°23'0 0.1 1004.7 2.3
2016-Jul-22 10:00S 51°16' E 110°23'1 1.1 999.5 2.2
2016-Jul-22 09:00S 51°18' E 110°23'0 0.1 997.1 2.2
2016-Jul-22 08:00S 51°18' E 110°23'1 1.0 994.6 2.2
2016-Jul-22 07:00S 51°18' E 110°22'0 0.0 992.2 2.2
2016-Jul-22 06:00S 51°18' E 110°22'3 0.9 990.8 2.2
2016-Jul-22 02:00S 51°20' E 110°18'2 1.0 994.4 2.2
2016-Jul-22 00:00S 51°21' E 110°15'1 1.1 997.5 2.3
2016-Jul-21 23:00S 51°20' E 110°13'1 0.6 998.7 2.3
2016-Jul-21 21:00S 51°20' E 110°11'1 0.5 1001.3 2.3
2016-Jul-21 19:00S 51°20' E 110°10'1 0.5 1003.9 2.3
2016-Jul-21 17:00S 51°20' E 110°08'1 0.6 1005.6 2.3
2016-Jul-21 15:00S 51°20' E 110°06'2 0.4 1007.7 2.2
2016-Jul-21 11:00S 51°20' E 110°03'3 1.7 1010.5 2.2
2016-Jul-21 09:00S 51°20' E 109°58'0 0.1 1010.5 2.2
2016-Jul-21 07:00S 51°20' E 109°58'2 0.4 1010.5 2.2
2016-Jul-21 01:00S 51°19' E 109°54'1 0.3 1008.3 2.2
2016-Jul-20 23:00S 51°19' E 109°54'3 1.3 1005.5 2.2
2016-Jul-20 21:00S 51°20' E 109°50'0 0.0 1002.3 2.2
2016-Jul-20 20:00S 51°20' E 109°50'1 1.1 1001.1 2.2
2016-Jul-20 19:00S 51°21' E 109°49'0 0.0 999.6 2.2
2016-Jul-20 17:00S 51°21' E 109°49'2 0.8 996.8 2.2
2016-Jul-20 15:00S 51°21' E 109°47'2 0.4 993.0 2.2
2016-Jul-20 11:00S 51°20' E 109°44'0 0.3 987.4 2.2
2016-Jul-20 10:00S 51°20' E 109°44'0 0.3 986.1 2.2
2016-Jul-20 09:00S 51°21' E 109°44'1 0.5 986.8 2.2
2016-Jul-20 07:00S 51°21' E 109°42'4 1.0 988.5 2.2
2016-Jul-20 03:00S 51°22' E 109°36'1 0.6 992.7 2.2
2016-Jul-20 01:00S 51°23' E 109°35'1 0.5 993.2 2.2
2016-Jul-19 22:00S 51°22' E 109°33'1 0.7 993.4 2.2
2016-Jul-19 20:00S 51°22' E 109°31'0 0.5 993.1 2.2
2016-Jul-19 19:00S 51°23' E 109°31'1 0.5 992.4 2.2
2016-Jul-19 17:00S 51°23' E 109°29'3 0.9 991.5 2.1
2016-Jul-19 14:00S 51°25' E 109°26'1 0.7 991.3 2.1
2016-Jul-19 12:00S 51°25' E 109°24'1 0.5 991.0 2.1
2016-Jul-19 11:00S 51°25' E 109°23'1 0.7 991.1 2.1
2016-Jul-19 09:00S 51°25' E 109°21'0 0.2 990.4 2.1
2016-Jul-19 08:00S 51°25' E 109°21'1 0.9 989.8 2.1
2016-Jul-19 07:00S 51°25' E 109°20'2 0.3 989.1 2.1
2016-Jul-19 00:00S 51°27' E 109°17'3 1.3 987.2 2.1
2016-Jul-18 22:00S 51°26' E 109°13'1 0.3 988.0 2.1
2016-Jul-18 20:00S 51°26' E 109°12'1 0.3 988.8 2.1
2016-Jul-18 17:00S 51°26' E 109°10'1 0.3 987.5 2.1
2016-Jul-18 14:00S 51°26' E 109°09'1 0.3 985.5 2.1
2016-Jul-18 12:00S 51°26' E 109°08'0 0.2 983.5 2.1
2016-Jul-18 10:00S 51°27' E 109°08'   981.2 2.1
Track history (hours):
 
Tides and Currents Weather Stations Pressure Air Temp Water Temp Dewpoint Dewpoint Depression Visibility Wind Speed Wind Dir Waves Ship Positions

Drifting buoy 56916

Last reported at 2016-Jul-28 07:00 UTC. Time now 2016-Jul-28 10:36 UTC.
Position S 50°30' E 110°46'.

Barometer 999.5 mb
Water temperature 2.2 ° C

Date/timePositionNaut miles runAvg speedWind from/ knotsBaromVisibWave heightAir tempDewpointWater temp
2016-Jul-28 07:00S 50°30' E 110°46'2 0.4 999.5 2.2
2016-Jul-28 02:00S 50°32' E 110°45'2 1.0 999.4 2.2
2016-Jul-28 00:00S 50°34' E 110°44'2 1.1 998.2 2.2
2016-Jul-27 22:00S 50°36' E 110°43'0 0.1 996.5 2.2
2016-Jul-27 20:00S 50°36' E 110°44'1 0.2 994.5 2.2
2016-Jul-27 17:00S 50°36' E 110°43'0 0.2 992.1 2.2
2016-Jul-27 16:00S 50°36' E 110°43'2 0.4 991.7 2.2
2016-Jul-27 12:00S 50°37' E 110°45'2 0.6 991.9 2.2
2016-Jul-27 09:00S 50°39' E 110°47'1 0.7 992.1 2.2
2016-Jul-27 07:00S 50°40' E 110°46'2 0.4 991.4 2.2
2016-Jul-27 01:00S 50°42' E 110°44'2 0.5 989.2 2.2
2016-Jul-26 22:00S 50°42' E 110°47'0 0.0 987.8 2.1
2016-Jul-26 21:00S 50°42' E 110°47'1 1.4 988.2 2.1
2016-Jul-26 20:00S 50°43' E 110°47'1 0.4 988.7 2.1
2016-Jul-26 17:00S 50°44' E 110°48'2 0.8 990.2 2.2
2016-Jul-26 15:00S 50°45' E 110°46'0 0.0 989.8 2.2
2016-Jul-26 14:00S 50°45' E 110°46'0 0.2 988.3 2.2
2016-Jul-26 13:00S 50°45' E 110°45'1 0.4 988.9 2.2
2016-Jul-26 11:00S 50°46' E 110°44'0 0.3 989.7 2.2
2016-Jul-26 10:00S 50°46' E 110°45'0 0.2 990.1 2.2
2016-Jul-26 08:00S 50°46' E 110°45'1 0.5 991.5 2.2
2016-Jul-26 06:00S 50°46' E 110°46'2 0.6 992.0 2.2
2016-Jul-26 02:00S 50°48' E 110°47'1 0.6 993.8 2.2
2016-Jul-26 01:00S 50°49' E 110°46'1 0.4 993.6 2.2
2016-Jul-25 23:00S 50°49' E 110°45'0 0.2 991.6 2.2
2016-Jul-25 22:00S 50°49' E 110°45'1 0.4 990.8 2.2
2016-Jul-25 20:00S 50°50' E 110°44'0 0.1 989.8 2.2
2016-Jul-25 18:00S 50°50' E 110°45'0 0.0 992.2 2.2
2016-Jul-25 17:00S 50°50' E 110°45'1 0.6 995.6 2.2
2016-Jul-25 16:00S 50°50' E 110°45'1 1.0 998.7 2.2
2016-Jul-25 15:00S 50°51' E 110°44'2 0.4 999.8 2.2
2016-Jul-25 10:00S 50°52' E 110°45'1 0.2 1002.3 2.2
2016-Jul-25 06:00S 50°53' E 110°45'2 0.5 998.4 2.2
2016-Jul-25 03:00S 50°54' E 110°48'0 0.0 994.0 2.2
2016-Jul-25 00:00S 50°54' E 110°48'1 0.4 997.1 2.2
2016-Jul-24 21:00S 50°55' E 110°48'0 0.4 1001.7 2.2
2016-Jul-24 20:00S 50°55' E 110°48'0 0.1 1002.7 2.2
2016-Jul-24 18:00S 50°55' E 110°47'1 0.7 1004.5 2.2
2016-Jul-24 17:00S 50°55' E 110°47'3 1.0 1004.9 2.2
2016-Jul-24 14:00S 50°57' E 110°46'0 0.1 1005.5 2.2
2016-Jul-24 11:00S 50°57' E 110°47'1 0.8 1005.5 2.3
2016-Jul-24 10:00S 50°58' E 110°47'0 0.5 1003.7 2.3
2016-Jul-24 09:00S 50°58' E 110°48'1 0.3 1002.8 2.2
2016-Jul-24 06:00S 50°59' E 110°48'4 0.9 999.1 2.1
2016-Jul-24 02:00S 51°03' E 110°48'1 0.6 996.0 2.1
2016-Jul-24 01:00S 51°03' E 110°48'1 0.8 995.4 2.1
2016-Jul-24 00:00S 51°04' E 110°47'1 0.3 994.5 2.1
2016-Jul-23 20:00S 51°05' E 110°46'2 0.6 994.9 2.2
2016-Jul-23 16:00S 51°07' E 110°45'1 0.4 996.9 2.2
2016-Jul-23 14:00S 51°08' E 110°45'1 0.5 997.7 2.3
2016-Jul-23 11:00S 51°09' E 110°43'1 0.8 998.0 2.3
2016-Jul-23 10:00S 51°10' E 110°43'1 0.7 997.9 2.3
2016-Jul-23 09:00S 51°10' E 110°42'1 0.4 997.4 2.3
2016-Jul-23 06:00S 51°11' E 110°40'3 0.6 995.6 2.3
2016-Jul-23 02:00S 51°12' E 110°37'2 0.9 1002.7 2.4
2016-Jul-23 00:00S 51°13' E 110°34'1 0.5 1006.2 2.4
2016-Jul-22 22:00S 51°13' E 110°33'1 1.0 1008.1 2.4
2016-Jul-22 21:00S 51°14' E 110°31'3 1.7 1008.3 2.4
2016-Jul-22 19:00S 51°14' E 110°26'1 0.6 1008.4 2.3
2016-Jul-22 18:00S 51°14' E 110°26'0 0.2 1008.3 2.3
2016-Jul-22 16:00S 51°15' E 110°27'3 1.0 1007.1 2.3
2016-Jul-22 13:00S 51°16' E 110°23'0 0.1 1004.7 2.3
2016-Jul-22 10:00S 51°16' E 110°23'1 1.1 999.5 2.2
2016-Jul-22 09:00S 51°18' E 110°23'0 0.1 997.1 2.2
2016-Jul-22 08:00S 51°18' E 110°23'1 1.0 994.6 2.2
2016-Jul-22 07:00S 51°18' E 110°22'0 0.0 992.2 2.2
2016-Jul-22 06:00S 51°18' E 110°22'3 0.9 990.8 2.2
2016-Jul-22 02:00S 51°20' E 110°18'2 1.0 994.4 2.2
2016-Jul-22 00:00S 51°21' E 110°15'1 1.1 997.5 2.3
2016-Jul-21 23:00S 51°20' E 110°13'1 0.6 998.7 2.3
2016-Jul-21 21:00S 51°20' E 110°11'1 0.5 1001.3 2.3
2016-Jul-21 19:00S 51°20' E 110°10'1 0.5 1003.9 2.3
2016-Jul-21 17:00S 51°20' E 110°08'1 0.6 1005.6 2.3
2016-Jul-21 15:00S 51°20' E 110°06'2 0.4 1007.7 2.2
2016-Jul-21 11:00S 51°20' E 110°03'3 1.7 1010.5 2.2
2016-Jul-21 09:00S 51°20' E 109°58'0 0.1 1010.5 2.2
2016-Jul-21 07:00S 51°20' E 109°58'2 0.4 1010.5 2.2
2016-Jul-21 01:00S 51°19' E 109°54'1 0.3 1008.3 2.2
2016-Jul-20 23:00S 51°19' E 109°54'3 1.3 1005.5 2.2
2016-Jul-20 21:00S 51°20' E 109°50'0 0.0 1002.3 2.2
2016-Jul-20 20:00S 51°20' E 109°50'1 1.1 1001.1 2.2
2016-Jul-20 19:00S 51°21' E 109°49'0 0.0 999.6 2.2
2016-Jul-20 17:00S 51°21' E 109°49'2 0.8 996.8 2.2
2016-Jul-20 15:00S 51°21' E 109°47'2 0.4 993.0 2.2
2016-Jul-20 11:00S 51°20' E 109°44'0 0.3 987.4 2.2
2016-Jul-20 10:00S 51°20' E 109°44'0 0.3 986.1 2.2
2016-Jul-20 09:00S 51°21' E 109°44'1 0.5 986.8 2.2
2016-Jul-20 07:00S 51°21' E 109°42'4 1.0 988.5 2.2
2016-Jul-20 03:00S 51°22' E 109°36'1 0.6 992.7 2.2
2016-Jul-20 01:00S 51°23' E 109°35'1 0.5 993.2 2.2
2016-Jul-19 22:00S 51°22' E 109°33'1 0.7 993.4 2.2
2016-Jul-19 20:00S 51°22' E 109°31'0 0.5 993.1 2.2
2016-Jul-19 19:00S 51°23' E 109°31'1 0.5 992.4 2.2
2016-Jul-19 17:00S 51°23' E 109°29'3 0.9 991.5 2.1
2016-Jul-19 14:00S 51°25' E 109°26'1 0.7 991.3 2.1
2016-Jul-19 12:00S 51°25' E 109°24'1 0.5 991.0 2.1
2016-Jul-19 11:00S 51°25' E 109°23'1 0.7 991.1 2.1
2016-Jul-19 09:00S 51°25' E 109°21'0 0.2 990.4 2.1
2016-Jul-19 08:00S 51°25' E 109°21'1 0.9 989.8 2.1
2016-Jul-19 07:00S 51°25' E 109°20'2 0.3 989.1 2.1
2016-Jul-19 00:00S 51°27' E 109°17'3 1.3 987.2 2.1
2016-Jul-18 22:00S 51°26' E 109°13'1 0.3 988.0 2.1
2016-Jul-18 20:00S 51°26' E 109°12'1 0.3 988.8 2.1
2016-Jul-18 17:00S 51°26' E 109°10'1 0.3 987.5 2.1
2016-Jul-18 14:00S 51°26' E 109°09'1 0.3 985.5 2.1
2016-Jul-18 12:00S 51°26' E 109°08'0 0.2 983.5 2.1
2016-Jul-18 10:00S 51°27' E 109°08'   981.2 2.1

Dump ship's entire track history